Time;durP1;ratioP1;P1;durP2;ratioP2;P2;SDS_P1;SDS_P2;PMS_P1;PMS_P2;Temp;Humidity;BMP_temperature;BMP_pressure;BME280_temperature;BME280_humidity;BME280_pressure;Samples;Min_cycle;Max_cycle;Signal;HPM_P1;HPM_P2
2022/07/20 00:00:25;;;;;;;7.13;1.92;;;24.90;62.00;;;;;;5039911;28;20106;-71
2022/07/20 00:02:51;;;;;;;6.70;2.08;;;24.90;59.30;;;;;;5039919;28;20719;-71
2022/07/20 00:05:16;;;;;;;8.00;1.77;;;25.00;56.50;;;;;;5053669;28;20359;-70
2022/07/20 00:07:42;;;;;;;5.63;1.55;;;25.20;54.80;;;;;;5056536;28;20056;-73
2022/07/20 00:12:53;;;;;;;7.65;1.30;;;25.40;53.00;;;;;;5061751;28;20080;-70
2022/07/20 00:15:18;;;;;;;6.63;1.33;;;25.30;52.90;;;;;;5058537;28;20709;-71
2022/07/20 00:17:44;;;;;;;5.55;1.70;;;25.40;52.30;;;;;;5060309;28;20048;-70
2022/07/20 00:20:10;;;;;;;5.80;1.77;;;25.30;52.70;;;;;;5039458;28;20054;-73
2022/07/20 00:22:36;;;;;;;8.55;1.75;;;25.30;52.40;;;;;;5037997;28;20286;-72
2022/07/20 00:25:03;;;;;;;4.68;1.70;;;25.30;51.70;;;;;;5042366;28;20904;-70
2022/07/20 00:27:29;;;;;;;8.00;1.52;;;25.20;51.30;;;;;;5055619;28;20610;-70
2022/07/20 00:29:55;;;;;;;5.75;1.60;;;25.20;51.20;;;;;;5056405;28;20135;-72
2022/07/20 00:32:21;;;;;;;3.97;1.52;;;25.10;51.10;;;;;;5056974;28;20451;-73
2022/07/20 00:34:46;;;;;;;7.28;1.55;;;25.10;51.30;;;;;;5044746;28;20475;-72
2022/07/20 00:37:12;;;;;;;3.65;1.42;;;25.00;51.20;;;;;;5058741;28;20131;-71
2022/07/20 00:39:38;;;;;;;4.20;1.63;;;24.90;50.60;;;;;;5052481;28;20706;-71
2022/07/20 00:42:04;;;;;;;5.88;1.80;;;24.90;50.30;;;;;;5036447;28;20051;-73
2022/07/20 00:44:30;;;;;;;7.78;1.58;;;24.80;51.00;;;;;;5039845;28;20700;-71
2022/07/20 00:46:55;;;;;;;7.63;1.40;;;24.70;50.70;;;;;;5057212;28;20064;-70
2022/07/20 00:49:21;;;;;;;9.20;1.30;;;24.70;50.90;;;;;;5021972;28;20056;-72
2022/07/20 00:51:48;;;;;;;6.03;1.60;;;24.60;51.00;;;;;;5054983;28;20051;-71
2022/07/20 00:54:14;;;;;;;3.78;1.30;;;24.50;50.70;;;;;;5058110;28;20675;-72
2022/07/20 00:56:40;;;;;;;5.40;1.92;;;24.50;50.80;;;;;;5055745;28;20459;-72
2022/07/20 00:59:09;;;;;;;4.82;1.55;;;24.40;50.60;;;;;;5040853;28;20750;-71
2022/07/20 01:01:35;;;;;;;6.82;1.42;;;24.40;50.60;;;;;;5059715;28;20059;-72
2022/07/20 01:04:01;;;;;;;7.60;1.30;;;24.40;50.50;;;;;;5051337;28;20504;-71
2022/07/20 01:06:28;;;;;;;6.20;1.38;;;24.30;51.00;;;;;;5038804;28;20060;-71
2022/07/20 01:08:53;;;;;;;6.43;1.50;;;24.30;51.00;;;;;;5054066;28;20039;-71
2022/07/20 01:11:20;;;;;;;8.93;1.70;;;24.20;51.20;;;;;;5033587;28;20136;-72
2022/07/20 01:13:46;;;;;;;6.95;1.52;;;24.20;51.40;;;;;;5040888;28;20431;-72
2022/07/20 01:16:11;;;;;;;5.15;1.65;;;24.20;51.10;;;;;;5055458;28;20574;-71
2022/07/20 01:18:37;;;;;;;5.47;1.75;;;24.20;50.90;;;;;;5054627;28;20028;-71
2022/07/20 01:21:07;;;;;;;5.53;1.50;;;24.10;50.70;;;;;;5040453;28;20139;-72
2022/07/20 01:23:34;;;;;;;4.88;1.58;;;24.10;51.90;;;;;;5033729;28;20131;-72
2022/07/20 01:26:00;;;;;;;5.90;1.55;;;24.10;55.20;;;;;;5036856;28;20075;-72
2022/07/20 01:28:27;;;;;;;5.35;1.80;;;23.90;63.10;;;;;;5056309;28;20119;-73
2022/07/20 01:30:53;;;;;;;8.10;1.73;;;23.60;73.30;;;;;;5057777;28;20032;-71
2022/07/20 01:33:21;;;;;;;6.75;1.55;;;23.40;80.90;;;;;;5035784;28;20633;-71
2022/07/20 01:35:46;;;;;;;6.88;1.30;;;23.40;84.90;;;;;;5056632;28;20047;-72
2022/07/20 01:38:12;;;;;;;6.35;1.73;;;23.10;89.70;;;;;;5051861;28;20094;-72
2022/07/20 01:40:38;;;;;;;5.80;1.67;;;23.00;90.60;;;;;;5055398;28;20032;-72
2022/07/20 01:43:03;;;;;;;7.05;1.30;;;22.80;91.10;;;;;;5051922;28;20059;-72
2022/07/20 01:45:29;;;;;;;5.53;1.65;;;22.70;92.90;;;;;;5036587;28;20048;-73
2022/07/20 01:47:55;;;;;;;5.00;1.52;;;22.50;94.20;;;;;;5059152;28;20044;-72
2022/07/20 01:50:21;;;;;;;5.72;1.63;;;22.30;95.90;;;;;;5053008;28;20254;-71
2022/07/20 01:52:46;;;;;;;4.53;1.73;;;22.20;97.40;;;;;;5054086;28;20689;-71
2022/07/20 01:55:12;;;;;;;7.38;1.90;;;22.10;97.60;;;;;;5056168;28;20139;-71
2022/07/20 01:57:38;;;;;;;5.65;1.83;;;22.00;98.30;;;;;;5051081;28;20263;-72
2022/07/20 02:00:06;;;;;;;6.65;1.75;;;21.90;99.70;;;;;;5041233;28;20052;-73
2022/07/20 02:02:32;;;;;;;6.07;1.75;;;21.80;99.90;;;;;;5037460;28;20055;-71
2022/07/20 02:04:57;;;;;;;6.55;1.90;;;21.80;99.90;;;;;;5040560;28;20051;-72
2022/07/20 02:07:23;;;;;;;7.10;1.92;;;21.70;99.90;;;;;;5056148;28;20099;-71
2022/07/20 02:09:49;;;;;;;7.55;2.05;;;21.60;99.90;;;;;;5059001;28;20093;-71
2022/07/20 02:12:14;;;;;;;5.68;1.80;;;21.60;99.90;;;;;;5054612;28;20036;-73
2022/07/20 02:14:40;;;;;;;7.30;1.80;;;21.60;99.90;;;;;;5040580;28;20041;-71
2022/07/20 02:17:06;;;;;;;13.77;2.30;;;21.60;99.90;;;;;;5057722;28;20888;-71
2022/07/20 02:19:31;;;;;;;4.43;1.60;;;21.70;99.00;;;;;;5055929;28;20457;-72
2022/07/20 02:21:57;;;;;;;8.60;1.90;;;21.80;97.10;;;;;;5047976;28;20052;-72
2022/07/20 02:24:23;;;;;;;5.90;2.05;;;21.80;96.30;;;;;;5042241;28;20123;-71
2022/07/20 02:26:49;;;;;;;8.65;2.28;;;21.90;95.60;;;;;;5033260;28;20473;-71
2022/07/20 02:29:15;;;;;;;8.32;3.15;;;22.00;94.90;;;;;;5049744;28;20079;-73
2022/07/20 02:31:40;;;;;;;7.35;2.92;;;22.10;92.70;;;;;;5059575;28;20806;-70
2022/07/20 02:34:06;;;;;;;8.77;2.65;;;22.20;91.60;;;;;;5039715;28;20052;-69
2022/07/20 02:36:31;;;;;;;6.88;2.60;;;22.30;89.20;;;;;;5041857;28;20040;-70
2022/07/20 02:38:57;;;;;;;7.82;2.30;;;22.30;87.60;;;;;;5040110;28;20040;-70
2022/07/20 02:41:23;;;;;;;5.25;1.75;;;22.40;86.00;;;;;;5054673;28;20039;-70
2022/07/20 02:43:48;;;;;;;5.38;1.63;;;22.40;86.20;;;;;;5058198;28;20167;-72
2022/07/20 02:46:14;;;;;;;6.55;2.22;;;22.50;85.80;;;;;;5037364;28;20514;-71
2022/07/20 02:48:40;;;;;;;6.78;1.98;;;22.50;86.10;;;;;;5054612;28;20123;-70
2022/07/20 02:51:05;;;;;;;6.53;2.42;;;22.40;87.70;;;;;;5034087;28;20059;-73
2022/07/20 02:53:31;;;;;;;7.57;1.73;;;22.40;87.50;;;;;;5054527;28;20035;-70
2022/07/20 02:55:57;;;;;;;7.85;1.73;;;22.30;87.90;;;;;;5035391;28;20044;-71
2022/07/20 02:58:23;;;;;;;4.65;1.88;;;22.30;89.40;;;;;;5019730;28;20555;-72
2022/07/20 03:00:48;;;;;;;6.60;1.88;;;22.40;90.50;;;;;;5060687;28;21022;-72
2022/07/20 03:03:14;;;;;;;4.28;1.60;;;22.40;90.30;;;;;;5055981;28;20448;-74
2022/07/20 03:05:40;;;;;;;6.47;2.13;;;22.40;90.30;;;;;;5036871;28;20434;-71
2022/07/20 03:08:07;;;;;;;6.30;1.70;;;22.40;91.00;;;;;;5053563;28;20052;-71
2022/07/20 03:10:33;;;;;;;9.00;2.28;;;22.40;91.30;;;;;;5054713;28;20086;-72
2022/07/20 03:12:59;;;;;;;9.85;2.13;;;22.30;91.20;;;;;;5052788;28;20080;-71
2022/07/20 03:15:25;;;;;;;9.27;1.98;;;22.30;91.40;;;;;;5060014;28;20148;-72
2022/07/20 03:17:53;;;;;;;5.43;2.47;;;22.20;93.20;;;;;;5058671;28;20636;-71
2022/07/20 03:20:22;;;;;;;8.57;2.08;;;22.10;96.80;;;;;;5036691;28;20043;-72
2022/07/20 03:22:48;;;;;;;5.10;2.22;;;22.00;99.70;;;;;;5056844;28;20131;-71
2022/07/20 03:25:14;;;;;;;4.63;2.25;;;21.90;99.90;;;;;;5055442;28;20105;-71
2022/07/20 03:27:39;;;;;;;6.22;2.38;;;21.80;99.90;;;;;;5058466;28;20588;-71
2022/07/20 03:30:06;;;;;;;7.80;2.00;;;21.70;99.90;;;;;;5056935;28;20139;-70
2022/07/20 03:32:32;;;;;;;6.22;2.10;;;21.80;99.90;;;;;;5046489;28;20655;-69
2022/07/20 03:34:58;;;;;;;6.05;1.80;;;21.90;99.90;;;;;;5061420;28;20050;-70
2022/07/20 03:37:24;;;;;;;5.82;1.60;;;22.00;99.90;;;;;;5055049;28;20136;-73
2022/07/20 03:39:50;;;;;;;5.38;1.60;;;22.00;99.90;;;;;;5043510;28;20040;-74
2022/07/20 03:42:16;;;;;;;3.97;1.40;;;22.00;99.90;;;;;;5062436;28;20024;-72
2022/07/20 03:44:41;;;;;;;3.42;1.40;;;22.00;99.90;;;;;;5057915;28;20486;-71
2022/07/20 03:47:07;;;;;;;5.43;1.55;;;22.00;99.90;;;;;;5053424;28;20048;-72
2022/07/20 03:49:33;;;;;;;5.63;1.73;;;21.90;99.90;;;;;;5053305;28;20069;-71
2022/07/20 03:51:59;;;;;;;7.35;1.77;;;21.90;99.90;;;;;;5040058;28;20036;-73
2022/07/20 03:54:24;;;;;;;3.08;1.63;;;22.00;99.90;;;;;;5034962;28;20447;-71
2022/07/20 03:56:50;;;;;;;6.88;2.03;;;22.00;99.90;;;;;;5040663;28;20691;-71
2022/07/20 03:59:16;;;;;;;5.20;1.98;;;22.00;99.90;;;;;;5058927;28;20136;-71
2022/07/20 04:01:42;;;;;;;8.00;1.92;;;22.00;99.90;;;;;;5056970;28;20515;-71
2022/07/20 04:04:08;;;;;;;8.23;1.95;;;22.00;99.90;;;;;;5057397;28;20119;-72
2022/07/20 04:06:34;;;;;;;7.30;2.00;;;21.90;99.90;;;;;;5011410;28;1099501;-71
2022/07/20 04:09:01;;;;;;;6.53;2.30;;;21.90;99.90;;;;;;5058075;28;20048;-72
2022/07/20 04:11:26;;;;;;;11.35;2.33;;;21.80;99.90;;;;;;5043858;28;20039;-71
2022/07/20 04:13:52;;;;;;;7.22;2.35;;;21.80;99.90;;;;;;5057504;28;20033;-73
2022/07/20 04:16:18;;;;;;;5.60;2.20;;;21.80;99.90;;;;;;5043168;28;20431;-71
2022/07/20 04:18:44;;;;;;;7.68;2.20;;;21.80;99.90;;;;;;5056917;28;20500;-71
2022/07/20 04:21:10;;;;;;;6.60;2.70;;;21.70;99.90;;;;;;5058731;28;20049;-71
2022/07/20 04:23:35;;;;;;;11.95;2.38;;;21.60;99.90;;;;;;5054400;28;20121;-70
2022/07/20 04:26:01;;;;;;;8.40;2.40;;;21.60;99.90;;;;;;5057237;28;20040;-70
2022/07/20 04:28:27;;;;;;;9.82;2.78;;;21.60;99.90;;;;;;5036837;28;20062;-71
2022/07/20 04:30:52;;;;;;;7.88;2.50;;;21.60;99.90;;;;;;5015336;28;20102;-70
2022/07/20 04:33:18;;;;;;;6.93;2.38;;;21.60;99.90;;;;;;5017735;28;20063;-71
2022/07/20 04:35:45;;;;;;;5.95;2.60;;;21.60;99.90;;;;;;5059727;28;20048;-70
2022/07/20 04:38:15;;;;;;;7.60;2.60;;;21.50;99.90;;;;;;5053840;28;20643;-71
2022/07/20 04:40:41;;;;;;;5.82;2.63;;;21.50;99.90;;;;;;5038625;28;20130;-71
2022/07/20 04:43:06;;;;;;;6.63;2.38;;;21.60;99.90;;;;;;5052753;28;20048;-72
2022/07/20 04:45:32;;;;;;;10.95;2.42;;;21.60;99.90;;;;;;5057019;28;20041;-71
2022/07/20 04:47:58;;;;;;;7.80;2.95;;;21.70;99.90;;;;;;5052936;28;20094;-71
2022/07/20 04:50:27;;;;;;;7.78;2.28;;;21.70;99.90;;;;;;5053848;28;20133;-74
2022/07/20 04:52:52;;;;;;;11.82;2.80;;;21.80;99.90;;;;;;5054707;28;20128;-71
2022/07/20 04:55:18;;;;;;;8.45;2.50;;;21.90;99.90;;;;;;5057541;28;20124;-72
2022/07/20 04:57:44;;;;;;;8.20;2.28;;;22.00;99.90;;;;;;5045362;28;20597;-72
2022/07/20 05:00:11;;;;;;;12.32;2.30;;;22.00;99.90;;;;;;5043087;28;20044;-71
2022/07/20 05:02:37;;;;;;;8.07;2.58;;;22.00;99.90;;;;;;5059396;28;20292;-71
2022/07/20 05:05:04;;;;;;;6.13;2.17;;;22.10;99.90;;;;;;5055621;28;20402;-71
2022/07/20 05:07:30;;;;;;;12.30;2.30;;;22.10;99.90;;;;;;5058020;28;20061;-70
2022/07/20 05:09:55;;;;;;;9.80;2.25;;;22.10;99.90;;;;;;5060448;28;20061;-70
2022/07/20 05:12:21;;;;;;;12.23;2.22;;;22.20;99.90;;;;;;5063268;28;20040;-70
2022/07/20 05:14:47;;;;;;;7.75;2.30;;;22.20;99.90;;;;;;5053487;28;20052;-71
2022/07/20 05:17:12;;;;;;;5.85;1.95;;;22.20;99.90;;;;;;5060067;28;20056;-73
2022/07/20 05:19:38;;;;;;;8.35;1.92;;;22.20;99.90;;;;;;5053616;28;20047;-73
2022/07/20 05:22:04;;;;;;;9.13;2.45;;;22.20;99.90;;;;;;5057839;28;20551;-71
2022/07/20 05:24:29;;;;;;;9.13;1.98;;;22.30;99.90;;;;;;5051913;28;20641;-71
2022/07/20 05:26:55;;;;;;;5.75;1.80;;;22.30;99.90;;;;;;5058841;28;20674;-71
2022/07/20 05:29:21;;;;;;;6.45;1.60;;;22.50;99.90;;;;;;5038483;28;20084;-71
2022/07/20 05:31:46;;;;;;;6.25;1.60;;;22.70;95.40;;;;;;5051650;28;20407;-73
2022/07/20 05:34:12;;;;;;;4.65;1.60;;;23.00;90.10;;;;;;5054184;28;20571;-71
2022/07/20 05:36:38;;;;;;;7.90;1.50;;;23.30;84.40;;;;;;5052736;28;20040;-73
2022/07/20 05:39:04;;;;;;;5.53;1.50;;;23.70;77.30;;;;;;5059472;28;20037;-72
2022/07/20 05:41:29;;;;;;;5.55;1.48;;;24.20;73.70;;;;;;5040542;28;20066;-71
2022/07/20 05:43:55;;;;;;;10.70;1.90;;;24.70;67.60;;;;;;5059185;28;20035;-70
2022/07/20 05:46:21;;;;;;;9.85;1.90;;;25.00;65.60;;;;;;5054896;28;20088;-70
2022/07/20 05:48:47;;;;;;;6.63;1.90;;;25.30;64.60;;;;;;5062583;28;20046;-70
2022/07/20 05:51:13;;;;;;;8.00;1.70;;;25.50;62.50;;;;;;5056885;28;20674;-73
2022/07/20 05:53:38;;;;;;;5.97;1.35;;;25.70;61.90;;;;;;5053298;28;20051;-74
2022/07/20 05:56:05;;;;;;;6.03;1.63;;;25.90;57.00;;;;;;5034716;28;20043;-74
2022/07/20 05:58:30;;;;;;;5.40;1.67;;;25.90;55.20;;;;;;5038197;28;20653;-75
2022/07/20 06:00:56;;;;;;;5.13;1.30;;;26.10;53.70;;;;;;5035366;28;20052;-72
2022/07/20 06:03:22;;;;;;;6.97;1.52;;;26.20;52.70;;;;;;5059402;28;20078;-73
2022/07/20 06:05:47;;;;;;;5.85;1.83;;;26.20;52.80;;;;;;5060122;28;20305;-72
2022/07/20 06:08:13;;;;;;;5.50;1.55;;;26.40;51.00;;;;;;5056618;28;20059;-73
2022/07/20 06:10:39;;;;;;;10.10;1.65;;;26.40;51.00;;;;;;5053901;28;20726;-75
2022/07/20 06:13:05;;;;;;;6.45;2.40;;;26.60;51.90;;;;;;5033767;28;20074;-74
2022/07/20 06:15:31;;;;;;;4.25;1.60;;;26.70;51.10;;;;;;5057003;28;20078;-74
2022/07/20 06:17:56;;;;;;;5.60;1.48;;;26.90;50.70;;;;;;5033652;28;20040;-74
2022/07/20 06:20:23;;;;;;;9.60;1.70;;;27.00;49.40;;;;;;5049486;28;20756;-75
2022/07/20 06:22:49;;;;;;;4.40;1.20;;;27.00;48.60;;;;;;5058356;28;20039;-75
2022/07/20 06:25:18;;;;;;;9.25;1.67;;;27.00;48.50;;;;;;5051418;28;20549;-73
2022/07/20 06:27:44;;;;;;;11.00;1.60;;;27.00;49.40;;;;;;5054853;28;20040;-72
2022/07/20 06:30:12;;;;;;;6.13;1.48;;;27.00;49.20;;;;;;5055105;28;20047;-73
2022/07/20 06:32:38;;;;;;;5.15;1.45;;;27.10;50.20;;;;;;5036055;28;20139;-76
2022/07/20 06:35:05;;;;;;;5.18;1.42;;;27.10;49.90;;;;;;5055777;28;20036;-74
2022/07/20 06:37:31;;;;;;;8.60;1.67;;;27.30;50.10;;;;;;5048265;28;20187;-73
2022/07/20 06:39:56;;;;;;;6.50;1.27;;;27.20;49.60;;;;;;5050502;28;20458;-74
2022/07/20 06:42:22;;;;;;;6.68;1.02;;;27.20;50.00;;;;;;5051958;28;20036;-75
2022/07/20 06:44:48;;;;;;;8.05;1.38;;;27.50;50.40;;;;;;5052832;28;20062;-73
2022/07/20 06:47:15;;;;;;;2.80;1.20;;;27.60;49.50;;;;;;5050589;28;20041;-73
2022/07/20 06:49:41;;;;;;;5.50;1.45;;;27.80;48.60;;;;;;5053017;28;20436;-74
2022/07/20 06:52:07;;;;;;;6.45;1.38;;;28.10;49.00;;;;;;5053472;28;20862;-72
2022/07/20 06:54:33;;;;;;;7.70;1.27;;;28.20;47.70;;;;;;5054546;28;20032;-71
2022/07/20 06:56:59;;;;;;;3.65;1.20;;;28.30;46.60;;;;;;5038734;28;20117;-73
2022/07/20 06:59:24;;;;;;;5.15;1.20;;;28.40;46.10;;;;;;5054945;28;20044;-72
2022/07/20 07:01:50;;;;;;;5.93;1.50;;;28.40;45.90;;;;;;5051249;28;20048;-76
2022/07/20 07:04:16;;;;;;;4.80;1.40;;;28.50;46.00;;;;;;5051522;28;20044;-73
2022/07/20 07:06:42;;;;;;;3.30;1.17;;;28.70;45.20;;;;;;5052715;28;20048;-75
2022/07/20 07:09:09;;;;;;;4.85;1.42;;;28.80;44.40;;;;;;5054569;28;20301;-71
2022/07/20 07:11:35;;;;;;;3.55;1.20;;;28.80;43.90;;;;;;5032449;28;20053;-73
2022/07/20 07:14:01;;;;;;;7.05;1.33;;;28.90;44.10;;;;;;5053576;28;20429;-73
2022/07/20 07:16:27;;;;;;;4.28;1.10;;;29.00;44.30;;;;;;5056014;28;20640;-73
2022/07/20 07:18:53;;;;;;;6.25;1.40;;;29.00;44.40;;;;;;5040528;28;20105;-73
2022/07/20 07:21:19;;;;;;;4.53;0.93;;;29.00;44.10;;;;;;5063243;28;20537;-73
2022/07/20 07:23:49;;;;;;;7.53;1.38;;;29.10;44.60;;;;;;5038205;28;20036;-73
2022/07/20 07:26:19;;;;;;;6.45;1.10;;;29.20;44.90;;;;;;5058613;28;20052;-73
2022/07/20 07:28:45;;;;;;;5.88;1.45;;;29.30;45.30;;;;;;5030122;28;20055;-73
2022/07/20 07:31:11;;;;;;;5.63;1.20;;;29.40;44.50;;;;;;5032276;28;20380;-72
2022/07/20 07:33:37;;;;;;;4.97;1.30;;;29.60;42.80;;;;;;5054034;28;20032;-72
2022/07/20 07:36:04;;;;;;;7.35;1.65;;;29.70;43.60;;;;;;5058948;28;20047;-72
2022/07/20 07:38:30;;;;;;;7.03;1.40;;;29.80;41.90;;;;;;5015118;28;20041;-73
2022/07/20 07:40:56;;;;;;;5.10;1.30;;;29.80;42.20;;;;;;5054331;28;20044;-72
2022/07/20 07:43:22;;;;;;;6.20;1.58;;;29.80;40.30;;;;;;5045679;28;20051;-73
2022/07/20 07:45:47;;;;;;;4.53;1.67;;;29.80;39.40;;;;;;5044814;28;20065;-75
2022/07/20 07:48:13;;;;;;;3.40;1.42;;;29.70;39.50;;;;;;5042696;28;20058;-72
2022/07/20 07:50:41;;;;;;;5.03;1.50;;;29.80;39.70;;;;;;5016604;28;20032;-74
2022/07/20 07:53:07;;;;;;;9.55;2.00;;;30.10;41.00;;;;;;5038500;28;20163;-73
2022/07/20 07:55:40;;;;;;;3.30;1.50;;;30.10;40.70;;;;;;5044485;28;20708;-73
2022/07/20 07:58:07;;;;;;;4.97;1.45;;;30.10;38.80;;;;;;5056867;28;20127;-73
2022/07/20 08:00:35;;;;;;;4.80;1.42;;;30.30;39.30;;;;;;5059533;28;20748;-73
2022/07/20 08:03:01;;;;;;;4.13;1.45;;;30.50;39.20;;;;;;5056374;28;21601;-75
2022/07/20 08:05:26;;;;;;;4.72;1.55;;;30.70;38.80;;;;;;5053298;28;20123;-73
2022/07/20 08:07:52;;;;;;;4.85;1.30;;;30.60;39.70;;;;;;5065239;28;20795;-73
2022/07/20 08:10:18;;;;;;;5.68;1.17;;;30.70;39.60;;;;;;5050925;28;20040;-72
2022/07/20 08:12:44;;;;;;;6.20;1.90;;;30.90;38.30;;;;;;5053873;28;20045;-73
2022/07/20 08:15:11;;;;;;;5.97;1.70;;;30.90;38.00;;;;;;5038538;28;20051;-74
2022/07/20 08:17:36;;;;;;;7.72;1.50;;;30.90;36.80;;;;;;5052735;28;20066;-73
2022/07/20 08:20:06;;;;;;;4.30;1.65;;;30.80;38.20;;;;;;5062053;28;20456;-73
2022/07/20 08:22:32;;;;;;;2.78;1.45;;;30.80;38.20;;;;;;5056871;28;20304;-72
2022/07/20 08:24:58;;;;;;;7.72;1.73;;;30.90;38.90;;;;;;5057211;28;20075;-74
2022/07/20 08:27:24;;;;;;;6.57;1.65;;;31.00;39.50;;;;;;5041702;28;20080;-75
2022/07/20 08:29:50;;;;;;;6.32;1.75;;;31.00;41.10;;;;;;5064838;28;20758;-73
2022/07/20 08:32:15;;;;;;;6.93;1.83;;;31.20;40.60;;;;;;5062048;28;20051;-75
2022/07/20 08:34:41;;;;;;;5.78;1.90;;;31.30;40.80;;;;;;5063881;28;20036;-73
2022/07/20 08:37:07;;;;;;;5.82;1.70;;;31.20;41.10;;;;;;5062522;28;20130;-73
2022/07/20 08:39:33;;;;;;;3.85;1.50;;;31.10;41.70;;;;;;5056807;28;20077;-73
2022/07/20 08:41:59;;;;;;;7.82;1.95;;;31.10;43.00;;;;;;5055316;28;20167;-72
2022/07/20 08:44:24;;;;;;;7.05;2.20;;;31.40;42.20;;;;;;5065072;28;20048;-73
2022/07/20 08:46:51;;;;;;;5.53;2.10;;;31.30;39.60;;;;;;5051748;28;20586;-73
2022/07/20 08:49:16;;;;;;;4.60;2.22;;;31.40;39.70;;;;;;5036127;28;20638;-73
2022/07/20 08:51:42;;;;;;;5.90;2.03;;;31.50;39.60;;;;;;5060872;28;20127;-74
2022/07/20 08:54:08;;;;;;;5.60;2.28;;;31.60;40.10;;;;;;5043370;28;20171;-73
2022/07/20 08:56:34;;;;;;;7.40;2.63;;;31.60;40.50;;;;;;5058880;28;20032;-74
2022/07/20 08:59:00;;;;;;;5.40;2.15;;;31.50;40.10;;;;;;5048942;28;20048;-73
2022/07/20 09:01:26;;;;;;;6.97;2.20;;;31.50;41.00;;;;;;5061428;28;20107;-73
2022/07/20 09:04:08;;;;;;;7.15;2.42;;;31.80;43.10;;;;;;5052819;28;20619;-73
2022/07/20 09:06:34;;;;;;;7.80;2.92;;;32.00;42.20;;;;;;5051386;28;20779;-73
2022/07/20 09:09:06;;;;;;;6.32;2.42;;;32.20;42.50;;;;;;5044412;28;20044;-72
2022/07/20 09:11:33;;;;;;;8.52;3.10;;;32.40;42.00;;;;;;5055204;28;20045;-74
2022/07/20 09:13:59;;;;;;;8.13;3.13;;;32.20;42.60;;;;;;5060400;28;20103;-73
2022/07/20 09:16:46;;;;;;;6.68;3.22;;;32.30;43.20;;;;;;5053270;28;20048;-73
2022/07/20 09:19:14;;;;;;;8.80;3.83;;;32.50;42.90;;;;;;5037334;28;20361;-75
2022/07/20 09:21:40;;;;;;;10.70;4.30;;;32.40;43.90;;;;;;5054340;28;20047;-73
2022/07/20 09:24:09;;;;;;;8.15;4.30;;;32.20;46.00;;;;;;5061229;28;20040;-73
2022/07/20 09:26:36;;;;;;;10.15;5.10;;;32.10;45.20;;;;;;5061997;28;20112;-72
2022/07/20 09:29:04;;;;;;;14.05;5.38;;;31.90;46.70;;;;;;5035457;28;20119;-73
2022/07/20 09:31:38;;;;;;;10.07;5.00;;;31.80;48.00;;;;;;5034188;28;20529;-73
2022/07/20 09:34:05;;;;;;;11.25;6.03;;;31.60;48.90;;;;;;5054358;28;20041;-74
2022/07/20 09:36:34;;;;;;;9.48;5.63;;;31.80;50.00;;;;;;5062951;28;20048;-74
2022/07/20 09:39:14;;;;;;;8.23;5.57;;;32.10;51.10;;;;;;5054356;28;20056;-73
2022/07/20 09:41:42;;;;;;;12.45;6.07;;;32.40;51.60;;;;;;5055283;28;20044;-73
2022/07/20 09:44:12;;;;;;;12.80;5.90;;;32.60;52.40;;;;;;5049602;28;20055;-76
2022/07/20 09:46:39;;;;;;;9.88;7.07;;;32.80;52.90;;;;;;5032723;28;20611;-73
2022/07/20 09:49:07;;;;;;;14.18;7.03;;;32.60;51.80;;;;;;5037556;28;20396;-73
2022/07/20 09:51:38;;;;;;;9.30;6.97;;;32.40;52.30;;;;;;5060085;28;20726;-73
2022/07/20 09:54:05;;;;;;;19.15;8.35;;;32.40;54.50;;;;;;5058897;28;20140;-73
2022/07/20 09:56:32;;;;;;;16.05;9.32;;;32.40;56.00;;;;;;5064247;28;20044;-74
2022/07/20 09:58:59;;;;;;;17.92;9.60;;;32.20;58.60;;;;;;5060090;28;20593;-74
2022/07/20 10:01:30;;;;;;;15.00;10.50;;;32.20;60.40;;;;;;5040478;28;20128;-74
2022/07/20 10:03:58;;;;;;;15.97;10.07;;;31.90;61.80;;;;;;5036628;28;20576;-72
2022/07/20 10:06:26;;;;;;;15.98;10.65;;;31.70;64.60;;;;;;5033535;28;20091;-72
2022/07/20 10:08:52;;;;;;;17.90;11.20;;;31.80;67.60;;;;;;5056361;28;20169;-75
2022/07/20 10:11:20;;;;;;;20.92;11.80;;;31.80;69.40;;;;;;5050074;28;20089;-72
2022/07/20 10:13:50;;;;;;;17.80;11.30;;;32.00;68.40;;;;;;5058885;28;20091;-74
2022/07/20 10:16:21;;;;;;;17.13;11.40;;;32.10;66.40;;;;;;5037535;28;20605;-72
2022/07/20 10:18:47;;;;;;;18.63;12.57;;;32.10;67.30;;;;;;5065878;28;20079;-72
2022/07/20 10:21:35;;;;;;;16.30;12.20;;;31.90;69.40;;;;;;5059966;28;20124;-75
2022/07/20 10:24:25;;;;;;;22.73;13.45;;;31.90;70.50;;;;;;5024263;28;20048;-73
2022/07/20 10:26:53;;;;;;;20.30;13.50;;;31.90;70.30;;;;;;5040774;28;20087;-73
2022/07/20 10:29:34;;;;;;;18.38;13.25;;;31.80;69.70;;;;;;5051462;28;20483;-74
2022/07/20 10:32:09;;;;;;;17.83;12.90;;;31.70;69.90;;;;;;5042469;28;20048;-73
2022/07/20 10:34:39;;;;;;;17.40;12.63;;;31.60;68.00;;;;;;5057680;28;20483;-74
2022/07/20 10:37:23;;;;;;;16.13;11.63;;;31.80;64.80;;;;;;5062952;28;20049;-76
2022/07/20 10:40:13;;;;;;;17.48;12.18;;;32.10;62.60;;;;;;5061195;28;20599;-74
2022/07/20 10:42:42;;;;;;;19.42;11.80;;;32.20;60.90;;;;;;5051957;28;20147;-74
2022/07/20 10:45:14;;;;;;;14.30;9.98;;;32.20;56.90;;;;;;5059582;28;20052;-77
2022/07/20 10:47:47;;;;;;;18.00;11.35;;;32.00;52.30;;;;;;5064902;28;20052;-77
2022/07/20 10:50:31;;;;;;;14.77;12.02;;;32.00;52.50;;;;;;5061683;28;20136;-77
2022/07/20 10:53:17;;;;;;;13.98;10.38;;;32.00;52.70;;;;;;5055266;28;20158;-76
2022/07/20 10:55:55;;;;;;;13.95;10.70;;;32.00;50.90;;;;;;5041649;28;20638;-76
2022/07/20 10:58:29;;;;;;;14.07;10.57;;;31.90;50.60;;;;;;5042910;28;20039;-79
2022/07/20 11:00:57;;;;;;;15.35;10.60;;;31.90;51.10;;;;;;5063993;28;20645;-77
2022/07/20 11:03:44;;;;;;;16.17;11.25;;;31.70;51.40;;;;;;5052335;28;20044;-76
2022/07/20 11:06:13;;;;;;;15.77;11.05;;;31.90;50.50;;;;;;5051587;28;20898;-76
2022/07/20 11:08:54;;;;;;;14.13;10.13;;;31.80;51.30;;;;;;5059840;28;20048;-76
2022/07/20 11:11:23;;;;;;;14.02;9.30;;;31.40;49.30;;;;;;5061976;28;20060;-76
2022/07/20 11:13:49;;;;;;;14.02;9.50;;;31.80;46.40;;;;;;5065807;28;20044;-77
2022/07/20 11:16:23;;;;;;;12.95;9.45;;;31.90;47.50;;;;;;5054410;28;20488;-75
2022/07/20 11:18:51;;;;;;;14.30;9.02;;;32.30;49.20;;;;;;5053303;28;20549;-77
2022/07/20 11:21:26;;;;;;;11.70;8.05;;;32.30;48.80;;;;;;5052711;28;20082;-78
2022/07/20 11:23:51;;;;;;;9.18;6.68;;;32.10;45.60;;;;;;5067102;28;20114;-77
2022/07/20 11:26:19;;;;;;;10.38;6.63;;;32.00;43.80;;;;;;5060442;28;20123;-76
2022/07/20 11:28:54;;;;;;;10.18;6.93;;;32.00;44.10;;;;;;5054268;28;20036;-77
2022/07/20 11:31:28;;;;;;;11.38;6.82;;;32.20;43.30;;;;;;5060810;28;20045;-77
2022/07/20 11:33:56;;;;;;;14.00;7.45;;;32.00;43.60;;;;;;5061574;28;20032;-76
2022/07/20 11:36:27;;;;;;;9.82;6.78;;;32.00;44.20;;;;;;5062800;28;20044;-77
2022/07/20 11:38:56;;;;;;;9.95;6.07;;;32.70;42.30;;;;;;5063720;28;20332;-75
2022/07/20 11:41:29;;;;;;;11.05;6.00;;;32.90;39.30;;;;;;5063081;28;20044;-76
2022/07/20 11:43:56;;;;;;;11.02;6.63;;;32.70;36.60;;;;;;5067835;28;20361;-76
2022/07/20 11:46:30;;;;;;;8.70;6.60;;;32.60;35.60;;;;;;5065995;28;20055;-75
2022/07/20 11:48:59;;;;;;;9.68;6.20;;;32.30;36.10;;;;;;5047027;28;20766;-78
2022/07/20 11:51:26;;;;;;;10.57;6.95;;;32.20;37.30;;;;;;5056455;28;20379;-77
2022/07/20 11:53:52;;;;;;;9.20;6.43;;;32.50;37.40;;;;;;5049683;28;20048;-77
2022/07/20 11:56:20;;;;;;;10.73;6.32;;;32.70;37.40;;;;;;5069585;28;20075;-77
2022/07/20 11:58:50;;;;;;;13.30;6.45;;;32.50;37.40;;;;;;5051211;28;20049;-77
2022/07/20 12:01:25;;;;;;;9.00;6.50;;;32.80;37.60;;;;;;5062976;28;20220;-76
2022/07/20 12:04:00;;;;;;;7.53;6.05;;;32.90;37.90;;;;;;5069613;28;20135;-75
2022/07/20 12:06:28;;;;;;;7.90;5.93;;;32.80;37.20;;;;;;5063214;28;20706;-76
2022/07/20 12:09:05;;;;;;;8.57;5.88;;;32.50;38.50;;;;;;5053914;28;20048;-76
2022/07/20 12:12:01;;;;;;;9.38;6.60;;;32.90;38.00;;;;;;5068777;28;20044;-78
2022/07/20 12:14:38;;;;;;;10.77;6.38;;;33.00;37.40;;;;;;5062983;28;20040;-77
2022/07/20 12:17:22;;;;;;;10.02;6.43;;;32.90;37.60;;;;;;5058807;28;20064;-75
2022/07/20 12:19:50;;;;;;;7.40;6.28;;;33.20;37.90;;;;;;5063516;28;20028;-77
2022/07/20 12:22:22;;;;;;;8.63;6.22;;;33.20;37.00;;;;;;5065081;28;20298;-76
2022/07/20 12:25:05;;;;;;;8.77;6.20;;;33.30;36.60;;;;;;5039464;28;20040;-78
2022/07/20 12:27:36;;;;;;;10.45;6.00;;;33.10;37.00;;;;;;5046032;28;20092;-79
2022/07/20 12:30:29;;;;;;;9.90;5.90;;;33.30;38.00;;;;;;5048915;28;20139;-75
2022/07/20 12:33:07;;;;;;;9.80;5.93;;;33.40;37.20;;;;;;5058560;28;20071;-75
2022/07/20 12:35:37;;;;;;;8.98;5.70;;;33.30;39.20;;;;;;5042292;28;20813;-77
2022/07/20 12:38:04;;;;;;;9.93;5.70;;;33.40;39.10;;;;;;5064632;28;20518;-76
2022/07/20 12:40:41;;;;;;;10.95;6.00;;;33.40;40.00;;;;;;5054016;28;20467;-76
2022/07/20 12:43:29;;;;;;;8.80;5.75;;;33.30;39.60;;;;;;5041072;28;20900;-76
2022/07/20 12:45:58;;;;;;;12.38;6.30;;;33.30;40.90;;;;;;5039927;28;20967;-77
2022/07/20 12:48:24;;;;;;;9.45;5.68;;;33.20;40.60;;;;;;5066937;28;20048;-76